sensor_id;sensor_type;location;lat;lon;timestamp;P1;durP1;ratioP1;P2;durP2;ratioP2
42886;SDS011;29032;56.028;92.904;2022-10-16T00:01:03;16.67;;;8.57;;
42886;SDS011;29032;56.028;92.904;2022-10-16T00:06:06;14.33;;;7.80;;
42886;SDS011;29032;56.028;92.904;2022-10-16T00:11:10;15.03;;;9.40;;
42886;SDS011;29032;56.028;92.904;2022-10-16T00:16:15;16.33;;;8.00;;
42886;SDS011;29032;56.028;92.904;2022-10-16T00:21:18;17.00;;;8.80;;
42886;SDS011;29032;56.028;92.904;2022-10-16T00:26:21;21.33;;;11.30;;
42886;SDS011;29032;56.028;92.904;2022-10-16T00:31:26;25.13;;;13.13;;
42886;SDS011;29032;56.028;92.904;2022-10-16T00:36:28;32.23;;;14.77;;
42886;SDS011;29032;56.028;92.904;2022-10-16T00:41:30;27.60;;;14.80;;
42886;SDS011;29032;56.028;92.904;2022-10-16T00:46:35;33.97;;;16.40;;
42886;SDS011;29032;56.028;92.904;2022-10-16T00:51:40;35.10;;;15.27;;
42886;SDS011;29032;56.028;92.904;2022-10-16T00:56:44;32.70;;;14.80;;
42886;SDS011;29032;56.028;92.904;2022-10-16T01:01:49;25.57;;;13.77;;
42886;SDS011;29032;56.028;92.904;2022-10-16T01:06:54;25.37;;;13.27;;
42886;SDS011;29032;56.028;92.904;2022-10-16T01:12:06;31.60;;;16.93;;
42886;SDS011;29032;56.028;92.904;2022-10-16T01:17:14;25.67;;;14.00;;
42886;SDS011;29032;56.028;92.904;2022-10-16T01:22:20;23.50;;;13.07;;
42886;SDS011;29032;56.028;92.904;2022-10-16T01:27:31;29.03;;;14.27;;
42886;SDS011;29032;56.028;92.904;2022-10-16T01:32:37;32.73;;;14.97;;
42886;SDS011;29032;56.028;92.904;2022-10-16T01:37:46;29.73;;;11.83;;
42886;SDS011;29032;56.028;92.904;2022-10-16T01:42:53;22.53;;;11.90;;
42886;SDS011;29032;56.028;92.904;2022-10-16T01:48:00;30.20;;;12.77;;
42886;SDS011;29032;56.028;92.904;2022-10-16T01:53:05;27.77;;;12.90;;
42886;SDS011;29032;56.028;92.904;2022-10-16T01:58:13;30.33;;;14.40;;
42886;SDS011;29032;56.028;92.904;2022-10-16T02:03:16;26.73;;;14.47;;
42886;SDS011;29032;56.028;92.904;2022-10-16T02:08:21;33.20;;;14.10;;
42886;SDS011;29032;56.028;92.904;2022-10-16T02:13:27;27.97;;;14.37;;
42886;SDS011;29032;56.028;92.904;2022-10-16T02:18:32;25.13;;;13.52;;
42886;SDS011;29032;56.028;92.904;2022-10-16T02:23:35;29.60;;;14.70;;
42886;SDS011;29032;56.028;92.904;2022-10-16T02:28:49;28.87;;;14.57;;
42886;SDS011;29032;56.028;92.904;2022-10-16T02:33:54;28.17;;;15.53;;
42886;SDS011;29032;56.028;92.904;2022-10-16T02:39:00;30.87;;;15.50;;
42886;SDS011;29032;56.028;92.904;2022-10-16T02:44:04;27.43;;;15.43;;
42886;SDS011;29032;56.028;92.904;2022-10-16T02:49:06;25.87;;;14.23;;
42886;SDS011;29032;56.028;92.904;2022-10-16T02:54:08;27.70;;;13.70;;
42886;SDS011;29032;56.028;92.904;2022-10-16T02:59:11;23.10;;;13.23;;
42886;SDS011;29032;56.028;92.904;2022-10-16T03:04:13;23.27;;;13.33;;
42886;SDS011;29032;56.028;92.904;2022-10-16T03:09:15;24.83;;;12.43;;
42886;SDS011;29032;56.028;92.904;2022-10-16T03:14:19;27.30;;;14.57;;
42886;SDS011;29032;56.028;92.904;2022-10-16T03:19:21;22.67;;;12.57;;
42886;SDS011;29032;56.028;92.904;2022-10-16T03:24:23;23.60;;;12.60;;
42886;SDS011;29032;56.028;92.904;2022-10-16T03:29:27;21.93;;;12.53;;
42886;SDS011;29032;56.028;92.904;2022-10-16T03:34:29;26.83;;;13.60;;
42886;SDS011;29032;56.028;92.904;2022-10-16T03:39:31;25.43;;;13.27;;
42886;SDS011;29032;56.028;92.904;2022-10-16T03:44:35;21.83;;;12.87;;
42886;SDS011;29032;56.028;92.904;2022-10-16T03:49:37;22.23;;;13.17;;
42886;SDS011;29032;56.028;92.904;2022-10-16T03:54:39;25.60;;;12.43;;
42886;SDS011;29032;56.028;92.904;2022-10-16T03:59:42;21.57;;;12.93;;
42886;SDS011;29032;56.028;92.904;2022-10-16T04:04:45;21.90;;;12.67;;
42886;SDS011;29032;56.028;92.904;2022-10-16T04:09:47;27.87;;;12.93;;
42886;SDS011;29032;56.028;92.904;2022-10-16T04:14:50;26.70;;;12.87;;
42886;SDS011;29032;56.028;92.904;2022-10-16T04:19:52;18.57;;;10.77;;
42886;SDS011;29032;56.028;92.904;2022-10-16T04:24:54;23.20;;;13.03;;
42886;SDS011;29032;56.028;92.904;2022-10-16T04:29:58;24.07;;;11.80;;
42886;SDS011;29032;56.028;92.904;2022-10-16T04:35:00;17.17;;;10.50;;
42886;SDS011;29032;56.028;92.904;2022-10-16T04:40:03;15.20;;;8.83;;
42886;SDS011;29032;56.028;92.904;2022-10-16T04:45:08;17.57;;;8.57;;
42886;SDS011;29032;56.028;92.904;2022-10-16T04:50:10;13.40;;;8.87;;
42886;SDS011;29032;56.028;92.904;2022-10-16T04:55:12;16.67;;;9.93;;
42886;SDS011;29032;56.028;92.904;2022-10-16T05:00:16;15.47;;;9.33;;
42886;SDS011;29032;56.028;92.904;2022-10-16T05:05:18;15.73;;;9.60;;
42886;SDS011;29032;56.028;92.904;2022-10-16T05:10:20;11.17;;;8.07;;
42886;SDS011;29032;56.028;92.904;2022-10-16T05:15:24;17.23;;;9.37;;
42886;SDS011;29032;56.028;92.904;2022-10-16T05:20:26;14.67;;;9.07;;
42886;SDS011;29032;56.028;92.904;2022-10-16T05:25:28;16.23;;;10.40;;
42886;SDS011;29032;56.028;92.904;2022-10-16T05:30:32;21.13;;;10.83;;
42886;SDS011;29032;56.028;92.904;2022-10-16T05:35:34;18.07;;;11.13;;
42886;SDS011;29032;56.028;92.904;2022-10-16T05:40:36;18.13;;;10.17;;
42886;SDS011;29032;56.028;92.904;2022-10-16T05:45:39;15.60;;;9.93;;
42886;SDS011;29032;56.028;92.904;2022-10-16T05:50:41;18.97;;;10.97;;
42886;SDS011;29032;56.028;92.904;2022-10-16T05:55:43;18.83;;;11.57;;
42886;SDS011;29032;56.028;92.904;2022-10-16T06:00:55;20.17;;;11.07;;
42886;SDS011;29032;56.028;92.904;2022-10-16T06:05:58;19.53;;;10.80;;
42886;SDS011;29032;56.028;92.904;2022-10-16T06:11:01;19.07;;;11.83;;
42886;SDS011;29032;56.028;92.904;2022-10-16T06:16:05;21.13;;;12.43;;
42886;SDS011;29032;56.028;92.904;2022-10-16T06:21:09;18.33;;;12.00;;
42886;SDS011;29032;56.028;92.904;2022-10-16T06:26:12;21.40;;;12.57;;
42886;SDS011;29032;56.028;92.904;2022-10-16T06:31:17;18.37;;;12.00;;
42886;SDS011;29032;56.028;92.904;2022-10-16T06:36:19;20.17;;;12.77;;
42886;SDS011;29032;56.028;92.904;2022-10-16T06:41:22;21.77;;;11.73;;
42886;SDS011;29032;56.028;92.904;2022-10-16T06:46:26;18.60;;;11.10;;
42886;SDS011;29032;56.028;92.904;2022-10-16T06:51:28;20.10;;;10.40;;
42886;SDS011;29032;56.028;92.904;2022-10-16T06:56:31;17.60;;;10.70;;
42886;SDS011;29032;56.028;92.904;2022-10-16T07:01:35;18.10;;;11.47;;
42886;SDS011;29032;56.028;92.904;2022-10-16T07:06:38;18.37;;;11.40;;
42886;SDS011;29032;56.028;92.904;2022-10-16T07:11:40;18.50;;;11.10;;
42886;SDS011;29032;56.028;92.904;2022-10-16T07:16:44;20.90;;;11.40;;
42886;SDS011;29032;56.028;92.904;2022-10-16T07:21:46;17.13;;;10.70;;
42886;SDS011;29032;56.028;92.904;2022-10-16T07:26:48;24.97;;;13.47;;
42886;SDS011;29032;56.028;92.904;2022-10-16T07:31:52;18.47;;;11.33;;
42886;SDS011;29032;56.028;92.904;2022-10-16T07:36:54;21.33;;;11.87;;
42886;SDS011;29032;56.028;92.904;2022-10-16T07:41:56;19.30;;;11.40;;
42886;SDS011;29032;56.028;92.904;2022-10-16T07:46:59;24.57;;;13.33;;
42886;SDS011;29032;56.028;92.904;2022-10-16T07:52:01;24.27;;;12.50;;
42886;SDS011;29032;56.028;92.904;2022-10-16T07:57:04;23.07;;;12.83;;
42886;SDS011;29032;56.028;92.904;2022-10-16T08:02:08;20.80;;;12.30;;
42886;SDS011;29032;56.028;92.904;2022-10-16T08:07:10;23.00;;;12.37;;
42886;SDS011;29032;56.028;92.904;2022-10-16T08:12:12;24.93;;;12.93;;
42886;SDS011;29032;56.028;92.904;2022-10-16T08:17:16;27.20;;;14.20;;
42886;SDS011;29032;56.028;92.904;2022-10-16T08:22:20;25.80;;;12.82;;
42886;SDS011;29032;56.028;92.904;2022-10-16T08:27:23;20.50;;;11.50;;
42886;SDS011;29032;56.028;92.904;2022-10-16T08:32:26;27.10;;;13.07;;
42886;SDS011;29032;56.028;92.904;2022-10-16T08:37:29;22.47;;;13.60;;
42886;SDS011;29032;56.028;92.904;2022-10-16T08:42:41;24.67;;;12.47;;
42886;SDS011;29032;56.028;92.904;2022-10-16T08:47:56;23.23;;;12.37;;
42886;SDS011;29032;56.028;92.904;2022-10-16T08:53:09;21.13;;;12.33;;
42886;SDS011;29032;56.028;92.904;2022-10-16T08:58:16;20.83;;;12.17;;
42886;SDS011;29032;56.028;92.904;2022-10-16T09:03:43;22.93;;;12.90;;
42886;SDS011;29032;56.028;92.904;2022-10-16T09:09:02;19.83;;;11.87;;
42886;SDS011;29032;56.028;92.904;2022-10-16T09:14:29;19.00;;;10.90;;
42886;SDS011;29032;56.028;92.904;2022-10-16T09:19:41;19.92;;;10.50;;
42886;SDS011;29032;56.028;92.904;2022-10-16T09:24:50;20.40;;;11.63;;
42886;SDS011;29032;56.028;92.904;2022-10-16T09:29:53;17.37;;;10.50;;
42886;SDS011;29032;56.028;92.904;2022-10-16T09:34:56;19.73;;;10.90;;
42886;SDS011;29032;56.028;92.904;2022-10-16T09:39:59;18.30;;;10.27;;
42886;SDS011;29032;56.028;92.904;2022-10-16T09:45:01;16.30;;;9.87;;
42886;SDS011;29032;56.028;92.904;2022-10-16T09:50:20;15.70;;;9.87;;
42886;SDS011;29032;56.028;92.904;2022-10-16T09:55:24;19.47;;;10.47;;
42886;SDS011;29032;56.028;92.904;2022-10-16T10:00:26;21.50;;;10.27;;
42886;SDS011;29032;56.028;92.904;2022-10-16T10:05:30;17.03;;;8.80;;
42886;SDS011;29032;56.028;92.904;2022-10-16T10:10:33;15.83;;;9.50;;
42886;SDS011;29032;56.028;92.904;2022-10-16T10:15:41;15.80;;;9.00;;
42886;SDS011;29032;56.028;92.904;2022-10-16T10:20:44;16.03;;;8.60;;
42886;SDS011;29032;56.028;92.904;2022-10-16T10:25:49;14.87;;;8.47;;
42886;SDS011;29032;56.028;92.904;2022-10-16T10:31:00;14.10;;;8.33;;
42886;SDS011;29032;56.028;92.904;2022-10-16T10:36:19;16.43;;;9.97;;
42886;SDS011;29032;56.028;92.904;2022-10-16T10:41:36;18.13;;;9.00;;
42886;SDS011;29032;56.028;92.904;2022-10-16T10:46:56;19.67;;;9.67;;
42886;SDS011;29032;56.028;92.904;2022-10-16T10:52:08;19.58;;;10.13;;
42886;SDS011;29032;56.028;92.904;2022-10-16T10:57:29;21.43;;;11.37;;
42886;SDS011;29032;56.028;92.904;2022-10-16T11:02:38;18.90;;;10.37;;
42886;SDS011;29032;56.028;92.904;2022-10-16T11:07:47;21.40;;;11.60;;
42886;SDS011;29032;56.028;92.904;2022-10-16T11:12:53;25.40;;;12.10;;
42886;SDS011;29032;56.028;92.904;2022-10-16T11:18:00;22.40;;;11.83;;
42886;SDS011;29032;56.028;92.904;2022-10-16T11:23:10;22.23;;;11.60;;
42886;SDS011;29032;56.028;92.904;2022-10-16T11:28:18;27.10;;;13.20;;
42886;SDS011;29032;56.028;92.904;2022-10-16T11:33:26;31.07;;;15.07;;
42886;SDS011;29032;56.028;92.904;2022-10-16T11:38:34;34.23;;;17.10;;
42886;SDS011;29032;56.028;92.904;2022-10-16T11:43:46;29.57;;;15.23;;
42886;SDS011;29032;56.028;92.904;2022-10-16T11:48:55;38.70;;;18.63;;
42886;SDS011;29032;56.028;92.904;2022-10-16T11:54:04;46.13;;;20.00;;
42886;SDS011;29032;56.028;92.904;2022-10-16T11:59:17;46.40;;;21.93;;
42886;SDS011;29032;56.028;92.904;2022-10-16T12:04:29;49.53;;;22.93;;
42886;SDS011;29032;56.028;92.904;2022-10-16T12:09:38;72.23;;;29.53;;
42886;SDS011;29032;56.028;92.904;2022-10-16T12:14:41;55.47;;;27.63;;
42886;SDS011;29032;56.028;92.904;2022-10-16T12:19:44;61.50;;;29.57;;
42886;SDS011;29032;56.028;92.904;2022-10-16T12:24:50;62.60;;;34.20;;
42886;SDS011;29032;56.028;92.904;2022-10-16T12:34:57;82.77;;;43.20;;
42886;SDS011;29032;56.028;92.904;2022-10-16T12:40:10;95.93;;;48.03;;
42886;SDS011;29032;56.028;92.904;2022-10-16T12:45:23;96.30;;;48.50;;
42886;SDS011;29032;56.028;92.904;2022-10-16T12:50:32;94.00;;;50.80;;
42886;SDS011;29032;56.028;92.904;2022-10-16T12:55:42;100.57;;;51.93;;
42886;SDS011;29032;56.028;92.904;2022-10-16T13:00:53;90.67;;;52.27;;
42886;SDS011;29032;56.028;92.904;2022-10-16T13:06:02;105.40;;;56.67;;
42886;SDS011;29032;56.028;92.904;2022-10-16T13:11:16;92.73;;;53.13;;
42886;SDS011;29032;56.028;92.904;2022-10-16T13:16:28;95.00;;;50.97;;
42886;SDS011;29032;56.028;92.904;2022-10-16T13:21:40;97.40;;;55.50;;
42886;SDS011;29032;56.028;92.904;2022-10-16T13:26:52;95.27;;;54.40;;
42886;SDS011;29032;56.028;92.904;2022-10-16T13:32:00;79.83;;;45.30;;
42886;SDS011;29032;56.028;92.904;2022-10-16T13:37:16;81.17;;;44.27;;
42886;SDS011;29032;56.028;92.904;2022-10-16T13:42:22;74.87;;;44.07;;
42886;SDS011;29032;56.028;92.904;2022-10-16T13:47:27;79.05;;;41.95;;
42886;SDS011;29032;56.028;92.904;2022-10-16T13:52:30;69.93;;;36.20;;
42886;SDS011;29032;56.028;92.904;2022-10-16T13:57:34;59.77;;;31.43;;
42886;SDS011;29032;56.028;92.904;2022-10-16T14:02:37;55.40;;;28.60;;
42886;SDS011;29032;56.028;92.904;2022-10-16T14:07:41;48.83;;;26.17;;
42886;SDS011;29032;56.028;92.904;2022-10-16T14:12:45;48.37;;;27.33;;
42886;SDS011;29032;56.028;92.904;2022-10-16T14:17:56;46.27;;;25.03;;
42886;SDS011;29032;56.028;92.904;2022-10-16T14:23:00;50.13;;;27.23;;
42886;SDS011;29032;56.028;92.904;2022-10-16T14:28:14;58.47;;;32.67;;
42886;SDS011;29032;56.028;92.904;2022-10-16T14:33:21;60.13;;;32.93;;
42886;SDS011;29032;56.028;92.904;2022-10-16T14:38:24;53.23;;;29.60;;
42886;SDS011;29032;56.028;92.904;2022-10-16T14:43:31;52.93;;;29.50;;
42886;SDS011;29032;56.028;92.904;2022-10-16T14:48:34;44.53;;;26.40;;
42886;SDS011;29032;56.028;92.904;2022-10-16T14:53:36;48.37;;;23.80;;
42886;SDS011;29032;56.028;92.904;2022-10-16T14:58:40;44.53;;;24.37;;
42886;SDS011;29032;56.028;92.904;2022-10-16T15:03:42;42.40;;;21.83;;
42886;SDS011;29032;56.028;92.904;2022-10-16T15:08:45;37.43;;;20.03;;
42886;SDS011;29032;56.028;92.904;2022-10-16T15:13:48;44.33;;;20.90;;
42886;SDS011;29032;56.028;92.904;2022-10-16T15:18:50;50.37;;;24.83;;
42886;SDS011;29032;56.028;92.904;2022-10-16T15:23:53;43.07;;;21.43;;
42886;SDS011;29032;56.028;92.904;2022-10-16T15:28:56;38.07;;;19.03;;
42886;SDS011;29032;56.028;92.904;2022-10-16T15:33:58;29.43;;;14.60;;
42886;SDS011;29032;56.028;92.904;2022-10-16T15:39:01;33.63;;;18.03;;
42886;SDS011;29032;56.028;92.904;2022-10-16T15:44:05;36.33;;;17.93;;
42886;SDS011;29032;56.028;92.904;2022-10-16T15:49:07;26.80;;;14.97;;
42886;SDS011;29032;56.028;92.904;2022-10-16T15:54:10;25.73;;;15.20;;
42886;SDS011;29032;56.028;92.904;2022-10-16T15:59:14;30.07;;;14.00;;
42886;SDS011;29032;56.028;92.904;2022-10-16T16:04:16;23.73;;;12.37;;
42886;SDS011;29032;56.028;92.904;2022-10-16T16:09:18;19.10;;;11.50;;
42886;SDS011;29032;56.028;92.904;2022-10-16T16:14:21;27.03;;;12.93;;
42886;SDS011;29032;56.028;92.904;2022-10-16T16:19:23;27.07;;;13.17;;
42886;SDS011;29032;56.028;92.904;2022-10-16T16:24:26;21.77;;;12.07;;
42886;SDS011;29032;56.028;92.904;2022-10-16T16:29:29;17.60;;;9.37;;
42886;SDS011;29032;56.028;92.904;2022-10-16T16:34:31;16.40;;;10.43;;
42886;SDS011;29032;56.028;92.904;2022-10-16T16:39:33;15.10;;;8.67;;
42886;SDS011;29032;56.028;92.904;2022-10-16T16:44:37;13.73;;;8.00;;
42886;SDS011;29032;56.028;92.904;2022-10-16T16:49:39;11.97;;;6.83;;
42886;SDS011;29032;56.028;92.904;2022-10-16T16:54:41;10.20;;;6.03;;
42886;SDS011;29032;56.028;92.904;2022-10-16T16:59:45;9.80;;;6.20;;
42886;SDS011;29032;56.028;92.904;2022-10-16T17:04:47;9.13;;;5.70;;
42886;SDS011;29032;56.028;92.904;2022-10-16T17:09:49;9.03;;;6.27;;
42886;SDS011;29032;56.028;92.904;2022-10-16T17:14:53;8.13;;;5.00;;
42886;SDS011;29032;56.028;92.904;2022-10-16T17:19:55;9.33;;;5.00;;
42886;SDS011;29032;56.028;92.904;2022-10-16T17:24:57;9.27;;;5.30;;
42886;SDS011;29032;56.028;92.904;2022-10-16T17:30:01;7.50;;;5.00;;
42886;SDS011;29032;56.028;92.904;2022-10-16T17:35:04;7.40;;;4.83;;
42886;SDS011;29032;56.028;92.904;2022-10-16T17:40:07;9.27;;;4.93;;
42886;SDS011;29032;56.028;92.904;2022-10-16T17:45:12;7.30;;;4.30;;
42886;SDS011;29032;56.028;92.904;2022-10-16T17:50:14;5.97;;;3.63;;
42886;SDS011;29032;56.028;92.904;2022-10-16T17:55:16;5.47;;;3.77;;
42886;SDS011;29032;56.028;92.904;2022-10-16T18:00:20;7.50;;;6.10;;
42886;SDS011;29032;56.028;92.904;2022-10-16T18:05:22;11.07;;;6.60;;
42886;SDS011;29032;56.028;92.904;2022-10-16T18:10:24;9.50;;;5.77;;
42886;SDS011;29032;56.028;92.904;2022-10-16T18:15:28;11.07;;;7.17;;
42886;SDS011;29032;56.028;92.904;2022-10-16T18:20:30;11.07;;;6.23;;
42886;SDS011;29032;56.028;92.904;2022-10-16T18:25:32;10.13;;;5.43;;
42886;SDS011;29032;56.028;92.904;2022-10-16T18:30:35;9.07;;;5.63;;
42886;SDS011;29032;56.028;92.904;2022-10-16T18:35:37;9.23;;;5.03;;
42886;SDS011;29032;56.028;92.904;2022-10-16T18:40:39;7.73;;;4.77;;
42886;SDS011;29032;56.028;92.904;2022-10-16T18:45:43;6.97;;;4.80;;
42886;SDS011;29032;56.028;92.904;2022-10-16T18:51:04;5.80;;;4.13;;
42886;SDS011;29032;56.028;92.904;2022-10-16T18:56:07;6.03;;;3.53;;
42886;SDS011;29032;56.028;92.904;2022-10-16T19:01:12;5.07;;;3.10;;
42886;SDS011;29032;56.028;92.904;2022-10-16T19:06:15;3.93;;;2.93;;
42886;SDS011;29032;56.028;92.904;2022-10-16T19:11:18;5.13;;;3.30;;
42886;SDS011;29032;56.028;92.904;2022-10-16T19:16:23;6.03;;;3.77;;
42886;SDS011;29032;56.028;92.904;2022-10-16T19:21:27;3.50;;;2.70;;
42886;SDS011;29032;56.028;92.904;2022-10-16T19:26:29;5.50;;;3.07;;
42886;SDS011;29032;56.028;92.904;2022-10-16T19:31:34;3.43;;;2.80;;
42886;SDS011;29032;56.028;92.904;2022-10-16T19:36:36;4.37;;;3.07;;
42886;SDS011;29032;56.028;92.904;2022-10-16T19:41:39;4.60;;;3.43;;
42886;SDS011;29032;56.028;92.904;2022-10-16T19:46:43;5.07;;;3.73;;
42886;SDS011;29032;56.028;92.904;2022-10-16T19:51:46;5.67;;;3.70;;
42886;SDS011;29032;56.028;92.904;2022-10-16T19:56:49;5.10;;;3.70;;
42886;SDS011;29032;56.028;92.904;2022-10-16T20:01:52;5.07;;;3.77;;
42886;SDS011;29032;56.028;92.904;2022-10-16T20:06:54;8.27;;;2.60;;
42886;SDS011;29032;56.028;92.904;2022-10-16T20:11:57;3.50;;;2.50;;
42886;SDS011;29032;56.028;92.904;2022-10-16T20:17:00;3.70;;;2.70;;
42886;SDS011;29032;56.028;92.904;2022-10-16T20:22:02;4.63;;;3.00;;
42886;SDS011;29032;56.028;92.904;2022-10-16T20:27:04;6.00;;;3.77;;
42886;SDS011;29032;56.028;92.904;2022-10-16T20:32:08;6.53;;;3.20;;
42886;SDS011;29032;56.028;92.904;2022-10-16T20:37:10;3.90;;;3.17;;
42886;SDS011;29032;56.028;92.904;2022-10-16T20:42:12;6.77;;;3.27;;
42886;SDS011;29032;56.028;92.904;2022-10-16T20:47:15;6.03;;;3.80;;
42886;SDS011;29032;56.028;92.904;2022-10-16T20:52:17;7.00;;;3.53;;
42886;SDS011;29032;56.028;92.904;2022-10-16T20:57:19;6.00;;;3.40;;
42886;SDS011;29032;56.028;92.904;2022-10-16T21:02:23;4.83;;;3.23;;
42886;SDS011;29032;56.028;92.904;2022-10-16T21:07:25;3.77;;;2.90;;
42886;SDS011;29032;56.028;92.904;2022-10-16T21:12:27;5.97;;;2.33;;
42886;SDS011;29032;56.028;92.904;2022-10-16T21:17:31;4.33;;;2.63;;
42886;SDS011;29032;56.028;92.904;2022-10-16T21:22:33;3.40;;;2.30;;
42886;SDS011;29032;56.028;92.904;2022-10-16T21:27:35;2.63;;;2.10;;
42886;SDS011;29032;56.028;92.904;2022-10-16T21:32:39;3.23;;;1.97;;
42886;SDS011;29032;56.028;92.904;2022-10-16T21:37:42;5.00;;;2.53;;
42886;SDS011;29032;56.028;92.904;2022-10-16T21:42:48;2.55;;;2.00;;
42886;SDS011;29032;56.028;92.904;2022-10-16T21:47:52;3.60;;;2.07;;
42886;SDS011;29032;56.028;92.904;2022-10-16T21:52:54;2.43;;;2.20;;
42886;SDS011;29032;56.028;92.904;2022-10-16T21:57:56;2.03;;;1.77;;
42886;SDS011;29032;56.028;92.904;2022-10-16T22:02:59;2.97;;;2.27;;
42886;SDS011;29032;56.028;92.904;2022-10-16T22:08:01;3.80;;;2.13;;
42886;SDS011;29032;56.028;92.904;2022-10-16T22:13:03;2.90;;;2.00;;
42886;SDS011;29032;56.028;92.904;2022-10-16T22:18:07;2.83;;;2.20;;
42886;SDS011;29032;56.028;92.904;2022-10-16T22:23:09;2.83;;;2.30;;
42886;SDS011;29032;56.028;92.904;2022-10-16T22:28:11;3.60;;;2.43;;
42886;SDS011;29032;56.028;92.904;2022-10-16T22:33:15;2.97;;;2.30;;
42886;SDS011;29032;56.028;92.904;2022-10-16T22:38:17;3.03;;;2.40;;
42886;SDS011;29032;56.028;92.904;2022-10-16T22:43:19;3.30;;;2.47;;
42886;SDS011;29032;56.028;92.904;2022-10-16T22:48:22;3.63;;;2.50;;
42886;SDS011;29032;56.028;92.904;2022-10-16T22:53:24;5.60;;;2.87;;
42886;SDS011;29032;56.028;92.904;2022-10-16T22:58:26;5.23;;;2.97;;
42886;SDS011;29032;56.028;92.904;2022-10-16T23:03:30;8.43;;;4.07;;
42886;SDS011;29032;56.028;92.904;2022-10-16T23:08:32;6.73;;;3.93;;
42886;SDS011;29032;56.028;92.904;2022-10-16T23:13:35;6.70;;;4.03;;
42886;SDS011;29032;56.028;92.904;2022-10-16T23:18:39;6.73;;;4.40;;
42886;SDS011;29032;56.028;92.904;2022-10-16T23:23:42;5.47;;;4.37;;
42886;SDS011;29032;56.028;92.904;2022-10-16T23:28:44;5.00;;;3.97;;
42886;SDS011;29032;56.028;92.904;2022-10-16T23:33:48;7.47;;;4.27;;
42886;SDS011;29032;56.028;92.904;2022-10-16T23:38:50;7.00;;;4.10;;
42886;SDS011;29032;56.028;92.904;2022-10-16T23:43:53;7.47;;;4.03;;
42886;SDS011;29032;56.028;92.904;2022-10-16T23:48:57;5.60;;;4.30;;
42886;SDS011;29032;56.028;92.904;2022-10-16T23:53:59;4.60;;;3.63;;
42886;SDS011;29032;56.028;92.904;2022-10-16T23:59:01;5.90;;;3.50;;
